Terminal Aerodrome Forecast
Issued by NWS Duluth, MN

Home | Current Version | Previous Version | Text Only | Print | Product List | Glossary On
Versions: 1 2 3 4 5 6 7 8 9 10 11 12 13 14 15 16 17 18 19 20
000
FTUS43 KDLH 180400 AAA
TAFDLH
TAF AMD
KDLH 180404Z 1804/1824 35011G25KT P6SM VCSH OVC016
     FM180600 35012KT P6SM BKN020
     FM181200 36007KT P6SM SCT025
     FM181800 22008KT P6SM SCT045=

USA.gov is the U.S. government's official web portal to all federal, state and local government web resources and services.